createdAt,value
2017-05-23T00:00:08.597Z,12.65
2017-05-23T00:01:09.300Z,12.65
2017-05-23T00:02:10.249Z,12.61
2017-05-23T00:03:10.953Z,12.58
2017-05-23T00:04:11.656Z,12.55
2017-05-23T00:05:12.348Z,12.60
2017-05-23T00:06:13.050Z,12.62
2017-05-23T00:07:14.001Z,12.53
2017-05-23T00:08:14.698Z,12.49
2017-05-23T00:09:15.399Z,12.42
2017-05-23T00:10:16.099Z,12.47
2017-05-23T00:11:16.798Z,12.43
2017-05-23T00:12:17.749Z,12.42
2017-05-23T00:13:18.448Z,12.43
2017-05-23T00:14:19.146Z,12.46
2017-05-23T00:15:19.845Z,12.37
2017-05-23T00:16:20.543Z,12.36
2017-05-23T00:17:21.543Z,12.40
2017-05-23T00:18:22.242Z,12.40
2017-05-23T00:19:22.943Z,12.32
2017-05-23T00:20:23.646Z,12.32
2017-05-23T00:21:24.346Z,12.37
2017-05-23T00:22:25.297Z,12.35
2017-05-23T00:23:25.996Z,12.35
2017-05-23T00:24:26.698Z,12.29
2017-05-23T00:25:27.399Z,12.29
2017-05-23T00:26:28.096Z,12.29
2017-05-23T00:27:29.048Z,12.24
2017-05-23T00:28:29.750Z,12.28
2017-05-23T00:29:30.445Z,12.25
2017-05-23T00:30:31.146Z,12.18
2017-05-23T00:31:31.854Z,12.21
2017-05-23T00:32:32.801Z,12.18
2017-05-23T00:33:33.500Z,12.12
2017-05-23T00:34:34.201Z,12.02
2017-05-23T00:35:34.903Z,12.02
2017-05-23T00:36:35.604Z,12.02
2017-05-23T00:37:36.555Z,11.99
2017-05-23T00:38:37.259Z,11.94
2017-05-23T00:39:37.961Z,11.99
2017-05-23T00:40:38.662Z,12.02
2017-05-23T00:41:39.598Z,11.94
2017-05-23T00:42:40.497Z,11.95
2017-05-23T00:43:41.202Z,11.94
2017-05-23T00:44:41.906Z,11.90
2017-05-23T00:45:42.611Z,11.90
2017-05-23T00:46:43.315Z,11.87
2017-05-23T00:47:44.266Z,11.84
2017-05-23T00:48:44.967Z,11.84
2017-05-23T00:49:45.671Z,11.80
2017-05-23T00:50:46.373Z,11.80
2017-05-23T00:51:47.073Z,11.83
2017-05-23T00:52:48.025Z,11.83
2017-05-23T00:53:48.724Z,11.81
2017-05-23T00:54:49.421Z,11.80
2017-05-23T00:55:50.120Z,11.81
2017-05-23T00:56:50.827Z,11.72
2017-05-23T00:57:51.826Z,11.69
2017-05-23T00:58:52.525Z,11.70
2017-05-23T00:59:53.222Z,11.75
2017-05-23T01:00:53.923Z,11.70
2017-05-23T01:01:54.624Z,11.66
2017-05-23T01:02:55.324Z,11.69
2017-05-23T01:03:56.019Z,11.69
2017-05-23T01:04:56.717Z,11.72
2017-05-23T01:05:57.416Z,11.68
2017-05-23T01:06:58.115Z,11.70
2017-05-23T01:07:59.061Z,11.72
2017-05-23T01:08:59.765Z,11.69
2017-05-23T01:10:00.466Z,11.70
2017-05-23T01:11:01.161Z,11.69
2017-05-23T01:12:01.858Z,11.65
2017-05-23T01:13:02.871Z,11.65
2017-05-23T01:14:03.573Z,11.55
2017-05-23T01:15:04.276Z,11.65
2017-05-23T01:16:04.976Z,11.57
2017-05-23T01:17:05.673Z,11.65
2017-05-23T01:18:06.573Z,11.68
2017-05-23T01:19:07.272Z,11.52
2017-05-23T01:20:07.972Z,11.65
2017-05-23T01:21:08.675Z,11.57
2017-05-23T01:22:09.376Z,11.54
2017-05-23T01:23:10.325Z,11.52
2017-05-23T01:24:11.024Z,11.60
2017-05-23T01:25:11.723Z,11.62
2017-05-23T01:26:12.420Z,11.54
2017-05-23T01:27:13.120Z,11.50
2017-05-23T01:28:14.069Z,11.43
2017-05-23T01:29:14.773Z,11.43
2017-05-23T01:30:15.472Z,11.45
2017-05-23T01:31:16.169Z,11.44
2017-05-23T01:32:16.868Z,11.50
2017-05-23T01:33:17.768Z,11.41
2017-05-23T01:34:18.472Z,11.35
2017-05-23T01:35:19.174Z,11.33
2017-05-23T01:36:19.873Z,11.35
2017-05-23T01:37:20.574Z,11.36
2017-05-23T01:38:21.473Z,11.35
2017-05-23T01:39:22.169Z,11.33
2017-05-23T01:40:22.872Z,11.35
2017-05-23T01:41:23.581Z,11.32
2017-05-23T01:42:24.279Z,11.25
2017-05-23T01:43:25.177Z,11.25
2017-05-23T01:44:25.874Z,11.23
2017-05-23T01:45:26.575Z,11.18
2017-05-23T01:46:27.271Z,11.27
2017-05-23T01:47:27.970Z,11.23
2017-05-23T01:48:28.918Z,11.14
2017-05-23T01:49:29.609Z,11.15
2017-05-23T01:50:30.309Z,11.14
2017-05-23T01:51:31.007Z,11.17
2017-05-23T01:52:31.709Z,11.17
2017-05-23T01:53:32.659Z,11.15
2017-05-23T01:54:33.360Z,11.14
2017-05-23T01:55:34.060Z,11.12
2017-05-23T01:56:34.769Z,11.05
2017-05-23T01:57:35.382Z,11.18
2017-05-23T01:58:36.414Z,11.07
2017-05-23T01:59:37.115Z,11.11
2017-05-23T02:00:37.826Z,11.10
2017-05-23T02:01:38.522Z,11.18
2017-05-23T02:02:39.221Z,11.14
2017-05-23T02:03:40.168Z,11.07
2017-05-23T02:04:40.866Z,11.17
2017-05-23T02:05:41.561Z,11.22
2017-05-23T02:06:42.259Z,11.11
2017-05-23T02:07:42.955Z,11.15
2017-05-23T02:08:43.901Z,11.08
2017-05-23T02:09:44.599Z,11.00
2017-05-23T02:10:45.295Z,11.18
2017-05-23T02:11:45.991Z,11.08
2017-05-23T02:12:46.692Z,11.12
2017-05-23T02:13:47.591Z,11.08
2017-05-23T02:14:48.289Z,11.18
2017-05-23T02:15:48.994Z,11.10
2017-05-23T02:16:49.692Z,11.11
2017-05-23T02:17:50.391Z,11.08
2017-05-23T02:18:51.341Z,11.08
2017-05-23T02:19:52.037Z,11.10
2017-05-23T02:20:52.735Z,11.08
2017-05-23T02:21:53.437Z,11.08
2017-05-23T02:22:54.134Z,11.08
2017-05-23T02:23:55.033Z,11.04
2017-05-23T02:24:55.732Z,11.02
2017-05-23T02:25:56.434Z,11.02
2017-05-23T02:26:57.132Z,11.02
2017-05-23T02:27:57.831Z,11.08
2017-05-23T02:28:58.779Z,11.08
2017-05-23T02:29:59.479Z,11.02
2017-05-23T02:31:00.179Z,10.99
2017-05-23T02:32:00.878Z,10.92
2017-05-23T02:33:01.574Z,10.90
2017-05-23T02:34:02.528Z,10.94
2017-05-23T02:35:03.230Z,10.89
2017-05-23T02:36:03.933Z,10.86
2017-05-23T02:37:04.635Z,10.87
2017-05-23T02:38:05.335Z,10.87
2017-05-23T02:39:06.287Z,10.86
2017-05-23T02:40:06.984Z,10.75
2017-05-23T02:41:07.682Z,10.79
2017-05-23T02:42:08.381Z,10.76
2017-05-23T02:43:09.084Z,10.79
2017-05-23T02:44:10.037Z,10.74
2017-05-23T02:45:10.737Z,10.75
2017-05-23T02:46:11.435Z,10.76
2017-05-23T02:47:12.133Z,10.68
2017-05-23T02:48:12.833Z,10.69
2017-05-23T02:49:13.779Z,10.72
2017-05-23T02:50:14.478Z,10.78
2017-05-23T02:51:15.181Z,10.75
2017-05-23T02:52:15.884Z,10.75
2017-05-23T02:53:16.584Z,10.79
2017-05-23T02:54:17.534Z,10.75
2017-05-23T02:55:18.230Z,10.78
2017-05-23T02:56:18.930Z,10.71
2017-05-23T02:57:19.629Z,10.76
2017-05-23T02:58:20.323Z,10.81
2017-05-23T02:59:21.219Z,10.84
2017-05-23T03:00:21.920Z,10.82
2017-05-23T03:01:22.620Z,10.87
2017-05-23T03:02:23.318Z,10.75
2017-05-23T03:03:24.018Z,10.82
2017-05-23T03:04:24.968Z,10.86
2017-05-23T03:05:25.671Z,10.82
2017-05-23T03:06:26.370Z,10.82
2017-05-23T03:07:27.064Z,10.82
2017-05-23T03:08:27.762Z,10.87
2017-05-23T03:09:28.715Z,10.79
2017-05-23T03:10:29.414Z,10.84
2017-05-23T03:11:30.110Z,10.86
2017-05-23T03:12:30.808Z,10.79
2017-05-23T03:13:31.512Z,10.82
2017-05-23T03:14:32.464Z,10.90
2017-05-23T03:15:33.167Z,10.81
2017-05-23T03:16:33.865Z,10.86
2017-05-23T03:17:34.568Z,10.87
2017-05-23T03:18:35.271Z,10.82
2017-05-23T03:19:36.225Z,10.76
2017-05-23T03:20:36.924Z,10.81
2017-05-23T03:21:37.624Z,10.84
2017-05-23T03:22:38.324Z,10.86
2017-05-23T03:23:39.022Z,10.84
2017-05-23T03:24:39.975Z,10.86
2017-05-23T03:25:40.675Z,10.86
2017-05-23T03:26:41.375Z,10.84
2017-05-23T03:27:42.081Z,10.87
2017-05-23T03:28:42.782Z,10.93
2017-05-23T03:29:43.729Z,10.90
2017-05-23T03:30:44.424Z,10.93
2017-05-23T03:31:45.118Z,10.92
2017-05-23T03:32:45.820Z,10.90
2017-05-23T03:33:46.518Z,10.89
2017-05-23T03:34:47.469Z,10.86
2017-05-23T03:35:48.175Z,10.82
2017-05-23T03:36:48.875Z,10.90
2017-05-23T03:37:49.578Z,10.76
2017-05-23T03:38:50.279Z,10.84
2017-05-23T03:39:51.180Z,10.82
2017-05-23T03:40:51.879Z,10.87
2017-05-23T03:41:52.578Z,10.81
2017-05-23T03:42:53.286Z,10.89
2017-05-23T03:43:53.990Z,10.90
2017-05-23T03:44:54.941Z,10.89
2017-05-23T03:45:55.645Z,10.87
2017-05-23T03:46:56.402Z,10.92
2017-05-23T03:47:57.104Z,10.79
2017-05-23T03:48:57.806Z,10.82
2017-05-23T03:49:58.763Z,10.89
2017-05-23T03:50:59.462Z,10.92
2017-05-23T03:52:00.158Z,10.96
2017-05-23T03:53:00.858Z,11.00
2017-05-23T03:54:01.558Z,10.92
2017-05-23T03:55:02.459Z,10.90
2017-05-23T03:56:03.160Z,10.96
2017-05-23T03:57:03.861Z,10.89
2017-05-23T03:58:04.564Z,10.97
2017-05-23T03:59:05.265Z,10.96
2017-05-23T04:00:06.166Z,10.94
2017-05-23T04:01:06.871Z,11.08
2017-05-23T04:02:07.572Z,11.10
2017-05-23T04:03:08.275Z,11.02
2017-05-23T04:04:08.976Z,11.05
2017-05-23T04:05:09.927Z,11.04
2017-05-23T04:06:10.630Z,10.99
2017-05-23T04:07:11.332Z,11.04
2017-05-23T04:08:12.035Z,10.99
2017-05-23T04:09:12.735Z,11.10
2017-05-23T04:10:13.686Z,11.08
2017-05-23T04:11:14.387Z,11.05
2017-05-23T04:12:15.090Z,10.96
2017-05-23T04:13:15.793Z,11.08
2017-05-23T04:14:16.492Z,11.02
2017-05-23T04:15:17.395Z,10.97
2017-05-23T04:16:18.098Z,11.07
2017-05-23T04:17:18.796Z,11.05
2017-05-23T04:18:19.497Z,11.11
2017-05-23T04:19:20.199Z,11.12
2017-05-23T04:20:21.174Z,11.10
2017-05-23T04:21:21.875Z,11.11
2017-05-23T04:22:22.579Z,11.08
2017-05-23T04:23:23.281Z,11.11
2017-05-23T04:24:23.983Z,11.12
2017-05-23T04:25:24.892Z,11.15
2017-05-23T04:26:25.597Z,11.15
2017-05-23T04:27:26.296Z,11.11
2017-05-23T04:28:26.999Z,11.19
2017-05-23T04:29:27.701Z,11.15
2017-05-23T04:30:28.654Z,11.14
2017-05-23T04:31:29.354Z,11.23
2017-05-23T04:32:30.057Z,11.26
2017-05-23T04:33:30.760Z,11.32
2017-05-23T04:34:31.462Z,11.26
2017-05-23T04:35:32.416Z,11.33
2017-05-23T04:36:33.121Z,11.36
2017-05-23T04:37:33.827Z,11.45
2017-05-23T04:38:34.530Z,11.44
2017-05-23T04:39:35.234Z,11.54
2017-05-23T04:40:36.186Z,11.54
2017-05-23T04:41:36.890Z,11.60
2017-05-23T04:42:37.603Z,11.57
2017-05-23T04:43:38.307Z,11.63
2017-05-23T04:44:39.006Z,11.66
2017-05-23T04:45:39.904Z,11.65
2017-05-23T04:46:40.609Z,11.69
2017-05-23T04:47:41.310Z,11.69
2017-05-23T04:48:42.017Z,11.66
2017-05-23T04:49:42.717Z,11.69
2017-05-23T04:50:43.672Z,11.69
2017-05-23T04:51:44.379Z,11.69
2017-05-23T04:52:45.077Z,11.68
2017-05-23T04:53:45.779Z,11.66
2017-05-23T04:54:46.488Z,11.84
2017-05-23T04:55:47.438Z,11.69
2017-05-23T04:56:48.141Z,11.80
2017-05-23T04:57:48.843Z,11.83
2017-05-23T04:58:49.544Z,11.83
2017-05-23T04:59:50.246Z,11.77
2017-05-23T05:00:51.155Z,11.86
2017-05-23T05:01:52.104Z,11.90
2017-05-23T05:02:52.810Z,11.91
2017-05-23T05:03:53.514Z,11.94
2017-05-23T05:04:54.218Z,11.90
2017-05-23T05:05:55.173Z,11.87
2017-05-23T05:06:55.890Z,12.03
2017-05-23T05:07:56.591Z,11.99
2017-05-23T05:08:57.293Z,11.97
2017-05-23T05:09:58.000Z,12.17
2017-05-23T05:10:58.957Z,12.10
2017-05-23T05:11:59.653Z,12.06
2017-05-23T05:13:00.350Z,12.17
2017-05-23T05:14:01.051Z,12.20
2017-05-23T05:15:01.755Z,12.25
2017-05-23T05:16:02.655Z,12.24
2017-05-23T05:17:03.354Z,12.32
2017-05-23T05:18:04.057Z,12.43
2017-05-23T05:19:04.758Z,12.45
2017-05-23T05:20:05.461Z,12.47
2017-05-23T05:21:06.415Z,12.53
2017-05-23T05:22:07.338Z,12.49
2017-05-23T05:23:08.048Z,12.65
2017-05-23T05:24:08.752Z,12.70
2017-05-23T05:25:09.453Z,12.73
2017-05-23T05:26:10.458Z,12.85
2017-05-23T05:27:11.169Z,12.93
2017-05-23T05:28:11.869Z,12.95
2017-05-23T05:29:12.572Z,13.09
2017-05-23T05:30:13.272Z,13.03
2017-05-23T05:31:14.225Z,13.18
2017-05-23T05:32:14.928Z,13.19
2017-05-23T05:33:15.633Z,13.33
2017-05-23T05:34:16.335Z,13.25
2017-05-23T05:35:17.042Z,13.41
2017-05-23T05:36:17.994Z,13.53
2017-05-23T05:37:18.696Z,13.49
2017-05-23T05:38:19.399Z,13.52
2017-05-23T05:39:20.103Z,13.70
2017-05-23T05:40:20.804Z,13.70
2017-05-23T05:41:21.707Z,13.68
2017-05-23T05:42:22.408Z,13.77
2017-05-23T05:43:23.112Z,13.89
2017-05-23T05:44:23.814Z,14.04
2017-05-23T05:45:24.519Z,14.08
2017-05-23T05:46:25.373Z,14.10
2017-05-23T05:47:26.116Z,14.28
2017-05-23T05:48:26.819Z,14.30
2017-05-23T05:49:27.520Z,14.40
2017-05-23T05:50:28.224Z,14.47
2017-05-23T05:51:29.176Z,14.51
2017-05-23T05:52:29.885Z,14.59
2017-05-23T05:53:30.596Z,14.66
2017-05-23T05:54:31.299Z,14.79
2017-05-23T05:55:32.000Z,14.84
2017-05-23T05:56:32.906Z,14.86
2017-05-23T05:57:33.607Z,14.97
2017-05-23T05:58:34.310Z,15.02
2017-05-23T05:59:35.011Z,14.89
2017-05-23T06:00:35.713Z,14.91
2017-05-23T06:01:36.616Z,14.97
2017-05-23T06:02:37.323Z,14.96
2017-05-23T06:03:38.027Z,14.92
2017-05-23T06:04:38.731Z,14.92
2017-05-23T06:05:39.438Z,14.92
2017-05-23T06:06:40.395Z,14.91
2017-05-23T06:07:41.101Z,14.85
2017-05-23T06:08:41.815Z,14.88
2017-05-23T06:09:42.520Z,14.86
2017-05-23T06:10:43.229Z,14.89
2017-05-23T06:11:44.184Z,14.85
2017-05-23T06:12:44.886Z,14.91
2017-05-23T06:13:45.593Z,14.91
2017-05-23T06:14:46.300Z,14.96
2017-05-23T06:15:47.008Z,14.99
2017-05-23T06:16:47.913Z,14.97
2017-05-23T06:17:48.619Z,15.00
2017-05-23T06:18:49.325Z,15.14
2017-05-23T06:19:50.032Z,15.06
2017-05-23T06:20:50.738Z,15.09
2017-05-23T06:21:51.697Z,15.17
2017-05-23T06:22:52.394Z,15.24
2017-05-23T06:23:53.096Z,15.24
2017-05-23T06:24:53.804Z,15.35
2017-05-23T06:25:54.513Z,15.39
2017-05-23T06:26:55.466Z,15.58
2017-05-23T06:27:56.172Z,15.51
2017-05-23T06:28:56.879Z,15.62
2017-05-23T06:29:57.582Z,15.68
2017-05-23T06:30:58.284Z,15.65
2017-05-23T06:31:59.240Z,15.75
2017-05-23T06:32:59.942Z,15.92
2017-05-23T06:34:00.650Z,15.91
2017-05-23T06:35:01.357Z,15.92
2017-05-23T06:36:02.063Z,15.92
2017-05-23T06:37:03.014Z,15.91
2017-05-23T06:38:03.719Z,15.98
2017-05-23T06:39:04.422Z,15.97
2017-05-23T06:40:05.127Z,16.04
2017-05-23T06:41:05.831Z,16.02
2017-05-23T06:42:06.788Z,16.01
2017-05-23T06:43:07.496Z,16.05
2017-05-23T06:44:08.204Z,16.09
2017-05-23T06:45:08.911Z,16.02
2017-05-23T06:46:09.613Z,16.00
2017-05-23T06:47:10.569Z,16.05
2017-05-23T06:48:11.275Z,16.02
2017-05-23T06:49:11.978Z,16.01
2017-05-23T06:50:12.688Z,16.04
2017-05-23T06:51:13.392Z,15.98
2017-05-23T06:52:14.348Z,15.98
2017-05-23T06:53:15.055Z,16.02
2017-05-23T06:54:15.759Z,16.08
2017-05-23T06:55:16.460Z,16.09
2017-05-23T06:56:17.165Z,16.02
2017-05-23T06:57:18.130Z,16.12
2017-05-23T06:58:18.834Z,16.21
2017-05-23T06:59:19.539Z,16.24
2017-05-23T07:00:20.253Z,16.38
2017-05-23T07:01:20.958Z,16.23
2017-05-23T07:02:21.912Z,16.23
2017-05-23T07:03:22.615Z,16.17
2017-05-23T07:04:23.326Z,16.29
2017-05-23T07:05:24.029Z,16.33
2017-05-23T07:06:24.739Z,16.21
2017-05-23T07:07:25.692Z,16.32
2017-05-23T07:08:26.398Z,16.42
2017-05-23T07:09:27.103Z,16.47
2017-05-23T07:10:27.805Z,16.46
2017-05-23T07:11:28.509Z,16.51
2017-05-23T07:12:29.469Z,16.60
2017-05-23T07:13:30.176Z,16.54
2017-05-23T07:14:30.818Z,16.53
2017-05-23T07:15:31.588Z,16.51
2017-05-23T07:16:32.293Z,16.58
2017-05-23T07:17:33.248Z,16.66
2017-05-23T07:18:33.959Z,16.69
2017-05-23T07:19:34.663Z,16.66
2017-05-23T07:20:35.373Z,16.87
2017-05-23T07:21:36.013Z,16.89
2017-05-23T07:22:37.030Z,16.97
2017-05-23T07:23:37.735Z,17.05
2017-05-23T07:24:38.438Z,16.94
2017-05-23T07:25:39.143Z,17.02
2017-05-23T07:26:39.849Z,17.02
2017-05-23T07:27:40.761Z,17.08
2017-05-23T07:28:41.470Z,17.06
2017-05-23T07:29:42.179Z,17.04
2017-05-23T07:30:42.884Z,17.09
2017-05-23T07:31:43.587Z,16.96
2017-05-23T07:32:44.539Z,16.99
2017-05-23T07:33:45.244Z,16.99
2017-05-23T07:34:45.949Z,17.04
2017-05-23T07:35:46.657Z,17.09
2017-05-23T07:36:47.362Z,17.12
2017-05-23T07:37:48.316Z,17.24
2017-05-23T07:38:49.023Z,17.23
2017-05-23T07:39:49.729Z,17.22
2017-05-23T07:40:50.435Z,17.26
2017-05-23T07:41:51.143Z,17.38
2017-05-23T07:42:52.094Z,17.39
2017-05-23T07:43:52.801Z,17.51
2017-05-23T07:44:53.509Z,17.60
2017-05-23T07:45:54.216Z,17.52
2017-05-23T07:46:54.942Z,17.63
2017-05-23T07:47:55.900Z,17.57
2017-05-23T07:48:56.610Z,17.71
2017-05-23T07:49:57.318Z,17.60
2017-05-23T07:50:58.026Z,17.71
2017-05-23T07:51:58.732Z,17.74
2017-05-23T07:52:59.692Z,17.85
2017-05-23T07:54:00.394Z,17.89
2017-05-23T07:55:01.097Z,17.90
2017-05-23T07:56:01.801Z,17.94
2017-05-23T07:57:02.505Z,17.94
2017-05-23T07:58:03.463Z,18.04
2017-05-23T07:59:04.171Z,18.10
2017-05-23T08:00:04.879Z,18.04
2017-05-23T08:01:05.597Z,18.18
2017-05-23T08:02:06.301Z,18.29
2017-05-23T08:03:07.208Z,18.23
2017-05-23T08:04:07.914Z,18.34
2017-05-23T08:05:08.617Z,18.34
2017-05-23T08:06:09.328Z,18.23
2017-05-23T08:07:10.034Z,18.29
2017-05-23T08:08:10.992Z,18.18
2017-05-23T08:09:11.701Z,18.34
2017-05-23T08:10:12.411Z,18.33
2017-05-23T08:11:13.123Z,18.44
2017-05-23T08:12:13.828Z,18.55
2017-05-23T08:13:14.733Z,18.47
2017-05-23T08:14:15.442Z,18.49
2017-05-23T08:15:16.151Z,18.66
2017-05-23T08:16:16.855Z,18.63
2017-05-23T08:17:17.559Z,18.80
2017-05-23T08:18:18.465Z,18.74
2017-05-23T08:19:19.174Z,18.86
2017-05-23T08:20:19.878Z,18.90
2017-05-23T08:21:20.590Z,18.86
2017-05-23T08:22:21.294Z,18.98
2017-05-23T08:23:22.203Z,18.88
2017-05-23T08:24:22.910Z,18.92
2017-05-23T08:25:23.621Z,18.90
2017-05-23T08:26:24.337Z,18.98
2017-05-23T08:27:25.045Z,19.02
2017-05-23T08:28:25.949Z,19.02
2017-05-23T08:29:26.666Z,19.02
2017-05-23T08:30:27.372Z,19.09
2017-05-23T08:31:28.080Z,19.18
2017-05-23T08:32:28.786Z,19.19
2017-05-23T08:33:29.491Z,19.24
2017-05-23T08:34:30.200Z,19.37
2017-05-23T08:35:30.908Z,19.45
2017-05-23T08:36:31.612Z,19.36
2017-05-23T08:37:32.319Z,19.34
2017-05-23T08:38:33.279Z,19.44
2017-05-23T08:39:33.987Z,19.56
2017-05-23T08:40:34.695Z,19.73
2017-05-23T08:41:35.402Z,19.79
2017-05-23T08:42:36.109Z,19.89
2017-05-23T08:43:37.017Z,19.85
2017-05-23T08:44:37.722Z,19.88
2017-05-23T08:45:38.429Z,19.92
2017-05-23T08:46:39.130Z,19.85
2017-05-23T08:47:39.837Z,20.02
2017-05-23T08:48:40.844Z,19.91
2017-05-23T08:49:41.553Z,19.94
2017-05-23T08:50:42.257Z,19.96
2017-05-23T08:51:42.964Z,19.99
2017-05-23T08:52:43.674Z,20.02
2017-05-23T08:53:44.634Z,20.06
2017-05-23T08:54:45.344Z,20.07
2017-05-23T08:55:46.047Z,20.10
2017-05-23T08:56:46.748Z,20.10
2017-05-23T08:57:47.451Z,20.13
2017-05-23T08:58:48.423Z,20.11
2017-05-23T08:59:49.137Z,20.25
2017-05-23T09:00:49.847Z,20.29
2017-05-23T09:01:50.560Z,20.50
2017-05-23T09:02:51.273Z,20.59
2017-05-23T09:03:52.183Z,20.55
2017-05-23T09:04:52.897Z,20.62
2017-05-23T09:05:53.601Z,20.52
2017-05-23T09:06:54.311Z,20.51
2017-05-23T09:07:55.020Z,20.60
2017-05-23T09:08:55.983Z,20.69
2017-05-23T09:09:56.698Z,20.74
2017-05-23T09:10:57.404Z,20.80
2017-05-23T09:11:58.108Z,20.82
2017-05-23T09:12:58.813Z,20.92
2017-05-23T09:13:59.775Z,21.03
2017-05-23T09:15:00.491Z,21.09
2017-05-23T09:16:01.198Z,21.21
2017-05-23T09:17:01.905Z,21.18
2017-05-23T09:18:02.615Z,21.20
2017-05-23T09:19:03.536Z,21.09
2017-05-23T09:20:04.242Z,21.11
2017-05-23T09:21:04.950Z,21.11
2017-05-23T09:22:05.660Z,21.22
2017-05-23T09:23:06.367Z,21.15
2017-05-23T09:24:07.273Z,21.20
2017-05-23T09:25:07.982Z,21.24
2017-05-23T09:26:08.699Z,21.29
2017-05-23T09:27:09.406Z,21.32
2017-05-23T09:28:10.112Z,21.45
2017-05-23T09:29:11.020Z,21.46
2017-05-23T09:30:11.730Z,21.50
2017-05-23T09:31:12.437Z,21.57
2017-05-23T09:32:13.144Z,21.45
2017-05-23T09:33:13.849Z,21.57
2017-05-23T09:34:14.758Z,21.67
2017-05-23T09:35:15.470Z,21.77
2017-05-23T09:36:16.183Z,21.89
2017-05-23T09:37:16.894Z,22.10
2017-05-23T09:38:17.606Z,22.33
2017-05-23T09:39:18.518Z,22.38
2017-05-23T09:40:19.229Z,22.50
2017-05-23T09:41:19.940Z,22.69
2017-05-23T09:42:20.654Z,22.78
2017-05-23T09:43:21.364Z,22.96
2017-05-23T09:44:22.331Z,22.98
2017-05-23T09:45:23.048Z,22.98
2017-05-23T09:46:23.758Z,22.84
2017-05-23T09:47:24.464Z,22.96
2017-05-23T09:48:25.175Z,23.00
2017-05-23T09:49:26.079Z,22.80
2017-05-23T09:50:26.787Z,22.80
2017-05-23T09:51:27.498Z,22.80
2017-05-23T09:52:28.208Z,22.76
2017-05-23T09:53:28.915Z,22.75
2017-05-23T09:54:29.874Z,22.66
2017-05-23T09:55:30.587Z,22.59
2017-05-23T09:56:31.298Z,22.57
2017-05-23T09:57:32.034Z,22.48
2017-05-23T09:58:32.740Z,22.54
2017-05-23T09:59:33.702Z,22.70
2017-05-23T10:00:34.422Z,22.85
2017-05-23T10:01:35.131Z,22.84
2017-05-23T10:02:35.839Z,22.96
2017-05-23T10:03:36.552Z,23.00
2017-05-23T10:04:37.512Z,22.98
2017-05-23T10:05:38.226Z,22.84
2017-05-23T10:06:38.936Z,23.03
2017-05-23T10:07:39.640Z,23.28
2017-05-23T10:08:40.346Z,23.56
2017-05-23T10:09:41.308Z,23.71
2017-05-23T10:10:42.021Z,23.83
2017-05-23T10:11:42.728Z,24.01
2017-05-23T10:12:43.441Z,24.33
2017-05-23T10:13:44.152Z,24.14
2017-05-23T10:14:45.122Z,24.30
2017-05-23T10:15:45.834Z,24.54
2017-05-23T10:16:46.548Z,24.66
2017-05-23T10:17:47.258Z,24.70
2017-05-23T10:18:47.970Z,24.66
2017-05-23T10:19:48.926Z,24.54
2017-05-23T10:20:49.632Z,24.51
2017-05-23T10:21:50.344Z,24.55
2017-05-23T10:22:51.053Z,24.54
2017-05-23T10:23:51.768Z,24.54
2017-05-23T10:24:52.728Z,24.58
2017-05-23T10:25:53.441Z,24.61
2017-05-23T10:26:54.157Z,24.65
2017-05-23T10:27:54.870Z,24.65
2017-05-23T10:28:55.580Z,24.86
2017-05-23T10:29:56.490Z,24.99
2017-05-23T10:30:57.201Z,24.92
2017-05-23T10:31:57.914Z,24.98
2017-05-23T10:32:58.624Z,24.65
2017-05-23T10:33:59.331Z,24.61
2017-05-23T10:35:00.292Z,24.63
2017-05-23T10:36:01.010Z,24.68
2017-05-23T10:37:01.723Z,24.70
2017-05-23T10:38:02.435Z,24.78
2017-05-23T10:39:03.146Z,24.89
2017-05-23T10:40:04.109Z,25.18
2017-05-23T10:41:04.819Z,25.46
2017-05-23T10:42:05.529Z,25.50
2017-05-23T10:43:06.242Z,25.63
2017-05-23T10:44:06.949Z,25.60
2017-05-23T10:45:07.861Z,25.48
2017-05-23T10:46:08.569Z,25.58
2017-05-23T10:47:09.280Z,25.68
2017-05-23T10:48:10.002Z,25.62
2017-05-23T10:49:10.713Z,25.68
2017-05-23T10:50:11.672Z,25.65
2017-05-23T10:51:12.382Z,25.43
2017-05-23T10:52:13.092Z,25.53
2017-05-23T10:53:13.803Z,25.70
2017-05-23T10:54:14.516Z,25.91
2017-05-23T10:55:15.476Z,25.95
2017-05-23T10:56:16.187Z,25.96
2017-05-23T10:57:16.899Z,25.98
2017-05-23T10:58:17.612Z,25.91
2017-05-23T10:59:18.340Z,25.77
2017-05-23T11:00:19.250Z,25.81
2017-05-23T11:01:19.969Z,25.70
2017-05-23T11:02:20.677Z,25.72
2017-05-23T11:03:21.390Z,25.53
2017-05-23T11:04:22.108Z,25.51
2017-05-23T11:05:22.823Z,25.46
2017-05-23T11:06:23.538Z,25.77
2017-05-23T11:07:24.247Z,26.07
2017-05-23T11:08:24.960Z,26.23
2017-05-23T11:09:25.672Z,26.22
2017-05-23T11:10:26.593Z,26.25
2017-05-23T11:11:27.314Z,26.29
2017-05-23T11:12:28.027Z,26.51
2017-05-23T11:13:28.733Z,26.21
2017-05-23T11:14:29.443Z,26.21
2017-05-23T11:15:30.408Z,26.23
2017-05-23T11:16:31.115Z,26.37
2017-05-23T11:17:31.826Z,26.60
2017-05-23T11:18:32.540Z,26.63
2017-05-23T11:19:33.250Z,26.70
2017-05-23T11:20:34.160Z,26.89
2017-05-23T11:21:34.881Z,26.81
2017-05-23T11:22:35.590Z,26.88
2017-05-23T11:23:36.298Z,26.66
2017-05-23T11:24:37.007Z,26.55
2017-05-23T11:25:37.971Z,26.66
2017-05-23T11:26:38.685Z,26.84
2017-05-23T11:27:39.399Z,26.85
2017-05-23T11:28:40.122Z,26.41
2017-05-23T11:29:40.837Z,26.52
2017-05-23T11:30:41.799Z,26.74
2017-05-23T11:31:42.511Z,26.89
2017-05-23T11:32:43.223Z,27.20
2017-05-23T11:33:43.938Z,27.42
2017-05-23T11:34:44.656Z,27.68
2017-05-23T11:35:45.623Z,28.01
2017-05-23T11:36:46.340Z,28.32
2017-05-23T11:37:47.052Z,28.22
2017-05-23T11:38:47.768Z,28.05
2017-05-23T11:39:48.477Z,28.26
2017-05-23T11:40:49.439Z,28.42
2017-05-23T11:41:50.166Z,28.14
2017-05-23T11:42:50.877Z,28.15
2017-05-23T11:43:51.601Z,28.11
2017-05-23T11:44:52.310Z,28.22
2017-05-23T11:45:53.226Z,28.22
2017-05-23T11:46:53.939Z,28.56
2017-05-23T11:47:54.649Z,28.37
2017-05-23T11:48:55.363Z,27.89
2017-05-23T11:49:56.074Z,27.71
2017-05-23T11:50:56.992Z,27.65
2017-05-23T11:51:57.750Z,27.49
2017-05-23T11:52:58.468Z,27.86
2017-05-23T11:53:59.189Z,28.26
2017-05-23T11:54:59.960Z,28.69
2017-05-23T11:56:00.930Z,29.01
2017-05-23T11:57:01.650Z,29.29
2017-05-23T11:58:02.362Z,29.49
2017-05-23T11:59:03.072Z,29.56
2017-05-23T12:00:03.782Z,29.53
2017-05-23T12:01:04.695Z,29.79
2017-05-23T12:02:05.409Z,29.97
2017-05-23T12:03:06.120Z,29.86
2017-05-23T12:04:06.846Z,29.93
2017-05-23T12:05:07.561Z,30.43
2017-05-23T12:06:08.524Z,30.68
2017-05-23T12:07:09.235Z,30.87
2017-05-23T12:08:09.951Z,31.09
2017-05-23T12:09:10.662Z,31.24
2017-05-23T12:10:11.373Z,31.03
2017-05-23T12:11:12.343Z,30.54
2017-05-23T12:12:13.064Z,30.51
2017-05-23T12:13:13.784Z,30.53
2017-05-23T12:14:14.502Z,29.82
2017-05-23T12:15:15.211Z,29.97
2017-05-23T12:16:16.177Z,30.65
2017-05-23T12:17:16.889Z,30.69
2017-05-23T12:18:17.609Z,30.54
2017-05-23T12:19:18.321Z,30.53
2017-05-23T12:20:19.038Z,30.27
2017-05-23T12:21:19.951Z,30.12
2017-05-23T12:22:20.681Z,30.32
2017-05-23T12:23:21.397Z,30.16
2017-05-23T12:24:22.107Z,30.40
2017-05-23T12:25:22.819Z,30.15
2017-05-23T12:26:23.733Z,30.19
2017-05-23T12:27:24.449Z,30.35
2017-05-23T12:28:25.170Z,30.59
2017-05-23T12:29:25.904Z,30.54
2017-05-23T12:30:26.619Z,29.93
2017-05-23T12:31:27.581Z,30.21
2017-05-23T12:32:28.294Z,30.43
2017-05-23T12:33:29.010Z,29.90
2017-05-23T12:34:29.726Z,29.56
2017-05-23T12:35:30.441Z,29.56
2017-05-23T12:36:31.411Z,29.69
2017-05-23T12:37:32.129Z,29.91
2017-05-23T12:38:32.845Z,29.39
2017-05-23T12:39:33.560Z,29.26
2017-05-23T12:40:34.277Z,29.59
2017-05-23T12:41:35.238Z,29.81
2017-05-23T12:42:35.950Z,29.98
2017-05-23T12:43:36.663Z,30.21
2017-05-23T12:44:37.383Z,30.62
2017-05-23T12:45:38.093Z,30.88
2017-05-23T12:46:39.056Z,30.69
2017-05-23T12:47:39.770Z,30.87
2017-05-23T12:48:40.498Z,31.10
2017-05-23T12:49:41.217Z,31.47
2017-05-23T12:50:41.927Z,31.44
2017-05-23T12:51:42.843Z,31.51
2017-05-23T12:52:43.565Z,31.14
2017-05-23T12:53:44.280Z,30.70
2017-05-23T12:54:44.992Z,29.75
2017-05-23T12:55:45.707Z,29.75
2017-05-23T12:56:46.720Z,30.24
2017-05-23T12:57:47.432Z,30.61
2017-05-23T12:58:48.147Z,31.05
2017-05-23T12:59:48.862Z,31.02
2017-05-23T13:00:49.574Z,31.34
2017-05-23T13:01:50.588Z,31.28